Time;durP1;ratioP1;P1;durP2;ratioP2;P2;SDS_P1;SDS_P2;PMS_P1;PMS_P2;Temp;Humidity;BMP_temperature;BMP_pressure;BME280_temperature;BME280_humidity;BME280_pressure;Samples;Min_cycle;Max_cycle;Signal;HPM_P1;HPM_P2
2023/04/24 00:00:19;;;;;;;;;4.67;4.67;;;;;15.68;91.35;100248.03;5080194;28;45265;-79
2023/04/24 00:02:46;;;;;;;;;8.00;8.00;;;;;15.66;90.96;100245.56;5079880;28;45319;-79
2023/04/24 00:05:13;;;;;;;;;6.33;6.33;;;;;15.63;91.04;100237.97;5080219;28;45386;-80
2023/04/24 00:07:39;;;;;;;;;6.00;6.00;;;;;15.62;92.09;100239.00;5079915;28;45323;-79
2023/04/24 00:10:05;;;;;;;;;7.00;7.00;;;;;15.65;91.42;100246.59;5080162;28;45276;-78
2023/04/24 00:12:30;;;;;;;;;5.67;5.67;;;;;15.63;90.85;100233.41;5079923;28;45490;-78
2023/04/24 00:14:56;;;;;;;;;7.00;7.00;;;;;15.73;91.04;100246.31;5079851;28;45245;-78
2023/04/24 00:17:21;;;;;;;;;7.00;7.00;;;;;15.60;90.79;100236.56;5079164;28;45269;-78
2023/04/24 00:19:48;;;;;;;;;7.00;7.00;;;;;15.64;90.71;100251.16;5080248;28;45308;-78
2023/04/24 00:22:14;;;;;;;;;6.67;6.67;;;;;15.63;90.82;100256.72;5080043;28;45286;-79
2023/04/24 00:24:39;;;;;;;;;10.00;8.33;;;;;15.70;90.88;100254.78;5079435;28;46303;-79
2023/04/24 00:27:05;;;;;;;;;11.33;11.00;;;;;15.68;90.81;100262.22;5079487;28;45283;-79
2023/04/24 00:29:30;;;;;;;;;17.33;16.33;;;;;15.66;90.93;100248.25;5079527;28;45355;-79
2023/04/24 00:31:55;;;;;;;;;17.33;14.33;;;;;15.71;90.74;100266.34;5060854;28;45380;-79
2023/04/24 00:34:21;;;;;;;;;18.67;16.00;;;;;15.76;90.68;100255.75;5079514;28;45989;-78
2023/04/24 00:36:48;;;;;;;;;21.33;18.33;;;;;15.82;90.65;100262.09;5079433;28;45317;-78
2023/04/24 00:39:14;;;;;;;;;16.67;16.00;;;;;15.91;91.03;100274.16;5079638;28;45359;-79
2023/04/24 00:41:39;;;;;;;;;9.33;9.00;;;;;15.93;90.45;100273.97;5079333;28;45512;-79
2023/04/24 00:44:05;;;;;;;;;8.00;7.00;;;;;15.88;90.69;100282.66;5079450;28;46378;-80
2023/04/24 00:46:31;;;;;;;;;12.33;9.00;;;;;15.96;90.31;100282.41;5079502;28;45245;-79
2023/04/24 00:48:57;;;;;;;;;7.00;7.00;;;;;15.98;90.65;100291.03;5079358;28;45236;-79
2023/04/24 00:51:24;;;;;;;;;8.00;6.00;;;;;16.00;90.77;100294.31;5078868;28;45282;-78
2023/04/24 00:53:50;;;;;;;;;6.33;6.33;;;;;15.99;90.45;100302.59;5079320;28;45361;-79
2023/04/24 00:56:16;;;;;;;;;9.67;8.00;;;;;15.95;90.61;100294.13;5078993;28;45431;-79
2023/04/24 00:58:43;;;;;;;;;8.00;8.00;;;;;15.92;90.93;100281.16;5079322;28;45323;-79
2023/04/24 01:01:09;;;;;;;;;6.67;6.00;;;;;15.84;91.35;100268.91;5079361;28;45257;-79
2023/04/24 01:03:36;;;;;;;;;6.00;6.00;;;;;16.00;90.02;100299.69;5079417;28;45601;-79
2023/04/24 01:06:02;;;;;;;;;6.33;6.33;;;;;15.75;91.24;100281.72;5082602;28;45248;-79
2023/04/24 01:08:28;;;;;;;;;7.33;7.00;;;;;15.83;90.61;100287.88;5082618;28;45228;-79
2023/04/24 01:10:54;;;;;;;;;6.67;5.67;;;;;15.94;90.76;100305.06;5082510;28;45441;-79
2023/04/24 01:13:21;;;;;;;;;7.33;7.00;;;;;15.92;90.40;100305.28;5082563;28;45371;-79
2023/04/24 01:15:46;;;;;;;;;5.67;5.67;;;;;15.91;91.05;100314.38;5082579;28;45363;-78
2023/04/24 01:18:13;;;;;;;;;7.00;6.33;;;;;15.92;91.34;100316.00;5082642;28;45309;-79
2023/04/24 01:20:44;;;;;;;;;6.33;5.67;;;;;15.96;90.57;100314.56;5082441;28;45343;-79
2023/04/24 01:23:10;;;;;;;;;7.00;7.00;;;;;15.95;91.21;100304.03;5082325;28;45394;-78
2023/04/24 01:25:36;;;;;;;;;6.00;6.00;;;;;15.94;90.71;100307.75;5082206;28;45290;-79
2023/04/24 01:28:01;;;;;;;;;6.33;6.33;;;;;15.89;90.22;100295.00;5082581;28;45460;-79
2023/04/24 01:30:27;;;;;;;;;7.00;6.00;;;;;15.86;89.93;100292.78;5100225;27;45324;-78
2023/04/24 01:32:53;;;;;;;;;5.00;5.00;;;;;15.92;90.25;100294.56;5102637;27;46246;-79
2023/04/24 01:35:19;;;;;;;;;4.67;4.67;;;;;15.81;90.20;100282.72;5083866;27;45441;-79
2023/04/24 01:37:45;;;;;;;;;4.33;4.33;;;;;15.84;90.07;100287.66;5101693;27;45267;-80
2023/04/24 01:40:10;;;;;;;;;5.00;5.00;;;;;15.83;90.23;100302.06;5102611;27;45459;-78
2023/04/24 01:42:36;;;;;;;;;6.33;4.00;;;;;15.75;89.76;100303.16;5102489;27;45177;-78
2023/04/24 01:45:03;;;;;;;;;7.00;6.00;;;;;15.68;90.60;100288.22;5102498;27;45318;-78
2023/04/24 01:47:30;;;;;;;;;5.00;5.00;;;;;15.63;90.64;100294.22;5102613;27;45219;-80
2023/04/24 01:49:55;;;;;;;;;5.33;5.33;;;;;15.63;91.18;100313.75;5102406;27;45533;-78
2023/04/24 01:52:21;;;;;;;;;5.33;5.00;;;;;15.56;90.67;100312.22;5102384;27;46185;-79
2023/04/24 01:54:46;;;;;;;;;5.33;4.67;;;;;15.53;91.16;100316.94;5084172;27;45323;-79
2023/04/24 01:57:13;;;;;;;;;6.00;6.00;;;;;15.23;91.63;100280.09;5102483;27;45359;-78
2023/04/24 01:59:38;;;;;;;;;7.33;6.67;;;;;15.50;91.44;100328.09;5102114;27;45300;-79
2023/04/24 02:02:03;;;;;;;;;7.00;5.00;;;;;15.47;91.29;100328.53;5102229;27;46012;-79
2023/04/24 02:04:29;;;;;;;;;5.00;5.00;;;;;15.37;91.75;100315.63;5102438;27;45303;-79
2023/04/24 02:06:54;;;;;;;;;5.00;5.00;;;;;15.47;91.12;100327.72;5102180;27;45346;-78
2023/04/24 02:09:20;;;;;;;;;6.33;6.33;;;;;15.50;90.98;100328.09;5081860;27;45484;-78
2023/04/24 02:11:45;;;;;;;;;6.00;5.67;;;;;15.48;91.22;100324.00;5081539;28;45371;-79
2023/04/24 02:14:10;;;;;;;;;7.33;7.33;;;;;15.41;91.42;100324.03;5081896;28;45309;-78
2023/04/24 02:16:36;;;;;;;;;5.00;5.00;;;;;15.34;91.46;100320.59;5080222;28;45409;-78
2023/04/24 02:19:02;;;;;;;;;6.00;4.67;;;;;15.34;91.96;100336.66;5081544;28;45213;-78
2023/04/24 02:21:27;;;;;;;;;5.67;5.00;;;;;15.21;91.72;100319.66;5080755;28;45307;-78
2023/04/24 02:23:53;;;;;;;;;6.67;6.67;;;;;15.29;92.12;100342.66;5081057;28;45211;-78
2023/04/24 02:26:19;;;;;;;;;7.33;5.00;;;;;15.25;92.05;100334.25;5081461;28;45227;-78
2023/04/24 02:28:44;;;;;;;;;6.33;6.00;;;;;15.26;92.10;100338.53;5085170;27;45369;-79
2023/04/24 02:31:09;;;;;;;;;5.67;5.67;;;;;15.23;92.75;100349.69;5101750;27;46334;-79
2023/04/24 02:33:35;;;;;;;;;7.00;7.00;;;;;15.30;92.84;100352.34;5101920;27;45647;-79
2023/04/24 02:36:01;;;;;;;;;6.00;5.33;;;;;15.31;93.21;100350.47;5101855;27;45473;-78
2023/04/24 02:38:26;;;;;;;;;4.00;4.00;;;;;15.24;93.12;100351.31;5101585;27;45311;-79
2023/04/24 02:40:52;;;;;;;;;6.00;6.00;;;;;15.17;92.78;100347.88;5101501;27;46298;-79
2023/04/24 02:43:17;;;;;;;;;5.67;5.67;;;;;15.17;92.81;100347.88;5083217;27;45314;-79
2023/04/24 02:45:43;;;;;;;;;6.67;6.00;;;;;15.21;92.67;100350.94;5101827;27;45418;-78
2023/04/24 02:48:08;;;;;;;;;4.00;4.00;;;;;15.31;92.74;100364.69;5101335;27;45533;-79
2023/04/24 02:50:33;;;;;;;;;5.33;4.00;;;;;15.26;92.98;100359.13;5101441;27;45385;-79
2023/04/24 02:52:59;;;;;;;;;9.00;7.00;;;;;15.20;92.76;100354.66;5101543;27;45315;-79
2023/04/24 02:55:24;;;;;;;;;6.00;6.00;;;;;15.30;92.86;100364.88;5101384;27;45541;-79
2023/04/24 02:57:50;;;;;;;;;4.00;3.33;;;;;15.34;92.95;100366.94;5101535;27;45294;-79
2023/04/24 03:00:16;;;;;;;;;6.33;6.33;;;;;15.35;93.16;100367.72;5101283;27;46248;-79
2023/04/24 03:02:41;;;;;;;;;5.00;5.00;;;;;15.39;92.85;100366.28;5101399;27;45270;-79
2023/04/24 03:05:07;;;;;;;;;6.33;6.33;;;;;15.40;92.86;100355.34;5101557;27;45569;-78
2023/04/24 03:07:32;;;;;;;;;6.00;6.00;;;;;15.47;92.53;100371.38;5101239;27;45497;-79
2023/04/24 03:09:58;;;;;;;;;6.00;5.33;;;;;15.46;92.41;100368.91;5101124;27;46315;-79
2023/04/24 03:12:23;;;;;;;;;7.00;6.00;;;;;15.43;91.75;100369.34;5101129;27;45275;-79
2023/04/24 03:14:49;;;;;;;;;6.00;5.00;;;;;15.49;92.29;100377.34;5101440;27;45216;-79
2023/04/24 03:17:14;;;;;;;;;5.00;5.00;;;;;15.50;92.46;100373.63;5101207;27;45354;-78
2023/04/24 03:19:40;;;;;;;;;7.00;6.00;;;;;15.46;92.17;100364.38;5100942;27;45317;-79
2023/04/24 03:22:05;;;;;;;;;6.00;6.00;;;;;15.46;91.80;100369.75;5101029;27;45315;-80
2023/04/24 03:24:31;;;;;;;;;5.67;5.67;;;;;15.43;91.80;100370.16;5101279;27;45310;-80
2023/04/24 03:26:56;;;;;;;;;6.33;5.67;;;;;15.39;91.78;100366.28;5100369;27;45503;-80
2023/04/24 03:29:22;;;;;;;;;5.67;5.67;;;;;15.42;91.96;100379.25;5091544;27;46530;-80
2023/04/24 03:31:47;;;;;;;;;6.00;6.00;;;;;15.42;92.21;100379.25;5080296;28;45734;-80
2023/04/24 03:34:13;;;;;;;;;4.33;4.33;;;;;15.49;91.87;100388.06;5080638;28;45478;-80
2023/04/24 03:36:38;;;;;;;;;5.33;5.33;;;;;15.49;91.31;100392.56;5080400;28;45371;-79
2023/04/24 03:39:03;;;;;;;;;6.33;6.00;;;;;15.45;91.77;100389.53;5080299;28;45333;-79
2023/04/24 03:41:30;;;;;;;;;3.00;3.00;;;;;15.39;91.86;100377.78;5080197;28;45364;-79
2023/04/24 03:43:55;;;;;;;;;6.00;6.00;;;;;15.39;92.17;100385.03;5080583;28;45219;-79
2023/04/24 03:46:21;;;;;;;;;7.00;5.67;;;;;15.32;92.28;100368.19;5080262;28;45299;-80
2023/04/24 03:48:46;;;;;;;;;7.00;7.00;;;;;15.45;92.39;100391.38;5080025;28;45537;-79
2023/04/24 03:51:11;;;;;;;;;7.33;5.33;;;;;15.35;92.19;100368.56;5080200;28;45208;-80
2023/04/24 03:53:37;;;;;;;;;5.33;5.33;;;;;15.24;92.28;100351.31;5080360;28;45311;-78
2023/04/24 03:56:02;;;;;;;;;6.00;6.00;;;;;15.40;92.60;100382.13;5079917;28;45325;-80
2023/04/24 03:58:28;;;;;;;;;7.00;6.00;;;;;15.48;92.75;100386.38;5079966;28;45423;-79
2023/04/24 04:00:53;;;;;;;;;7.00;7.00;;;;;15.41;92.85;100385.63;5080276;28;45215;-79
2023/04/24 04:03:18;;;;;;;;;5.00;5.00;;;;;15.44;93.15;100379.03;5080283;28;45752;-79
2023/04/24 04:05:44;;;;;;;;;5.00;5.00;;;;;15.52;92.76;100395.66;5079893;28;45220;-79
2023/04/24 04:08:09;;;;;;;;;5.67;5.67;;;;;15.42;93.09;100379.25;5080004;28;46288;-78
2023/04/24 04:10:35;;;;;;;;;5.00;4.67;;;;;15.60;92.62;100407.97;5079804;28;45329;-79
2023/04/24 04:13:00;;;;;;;;;7.00;6.00;;;;;15.60;91.87;100396.44;5080150;28;45256;-79
2023/04/24 04:15:26;;;;;;;;;6.00;6.00;;;;;15.46;92.27;100379.63;5079906;28;45330;-79
2023/04/24 04:17:51;;;;;;;;;6.00;6.00;;;;;15.61;92.56;100414.13;5079716;28;45436;-79
2023/04/24 04:20:16;;;;;;;;;6.33;5.00;;;;;15.63;92.77;100417.44;5079750;28;45233;-79
2023/04/24 04:22:42;;;;;;;;;8.67;7.67;;;;;15.64;92.63;100421.75;5079868;28;45378;-79
2023/04/24 04:25:08;;;;;;;;;7.67;7.33;;;;;15.67;92.69;100424.00;5079918;28;45394;-79
2023/04/24 04:27:34;;;;;;;;;5.33;5.33;;;;;15.70;92.25;100428.91;5072329;28;46056;-79
2023/04/24 04:30:04;;;;;;;;;6.33;6.33;;;;;15.74;92.60;100432.81;5072704;28;45228;-79
2023/04/24 04:32:32;;;;;;;;;6.67;6.00;;;;;15.72;92.38;100432.22;5066173;28;45330;-79
2023/04/24 04:34:58;;;;;;;;;5.00;4.67;;;;;15.68;91.73;100425.63;5075215;28;45343;-78
2023/04/24 04:37:25;;;;;;;;;8.00;8.00;;;;;15.75;91.75;100447.84;5079390;28;45366;-79
2023/04/24 04:39:50;;;;;;;;;7.67;5.00;;;;;15.82;92.35;100452.34;5063528;28;45323;-78
2023/04/24 04:42:15;;;;;;;;;9.33;9.33;;;;;15.80;92.18;100439.16;5082912;28;45539;-78
2023/04/24 04:44:41;;;;;;;;;7.00;7.00;;;;;15.89;92.02;100448.56;5083110;28;45438;-78
2023/04/24 04:47:06;;;;;;;;;7.67;7.67;;;;;15.74;92.15;100427.44;5064466;28;47203;-80
2023/04/24 04:49:32;;;;;;;;;7.00;6.33;;;;;15.93;91.42;100454.34;5083134;28;45323;-78
2023/04/24 04:51:57;;;;;;;;;6.33;5.67;;;;;15.95;91.81;100454.91;5083269;28;45287;-79
2023/04/24 04:54:23;;;;;;;;;6.67;6.67;;;;;15.85;91.41;100462.63;5083099;28;45381;-80
2023/04/24 04:56:50;;;;;;;;;8.00;7.67;;;;;15.95;90.74;100460.28;5082771;28;45263;-80
2023/04/24 04:59:16;;;;;;;;;8.00;8.00;;;;;16.01;91.55;100456.75;5082852;28;45419;-80
2023/04/24 05:01:41;;;;;;;;;6.67;6.67;;;;;15.95;90.67;100448.75;5083103;28;45325;-79
2023/04/24 05:04:06;;;;;;;;;7.33;7.33;;;;;16.04;91.19;100471.59;5082984;28;45386;-80
2023/04/24 05:06:32;;;;;;;;;2.67;2.00;;;;;16.07;90.93;100473.03;5082699;28;45237;-80
2023/04/24 05:08:57;;;;;;;;;9.33;9.33;;;;;16.06;89.86;100469.50;5082350;28;45509;-80
2023/04/24 05:11:23;;;;;;;;;6.67;6.67;;;;;16.11;90.31;100482.28;5083106;28;45406;-80
2023/04/24 05:13:48;;;;;;;;;9.67;9.67;;;;;16.11;90.79;100493.00;5082724;28;45570;-80
2023/04/24 05:16:13;;;;;;;;;11.67;9.67;;;;;16.12;90.99;100494.63;5082640;28;46150;-80
2023/04/24 05:18:39;;;;;;;;;8.67;8.67;;;;;16.14;90.36;100506.78;5082593;28;45354;-81
2023/04/24 05:21:04;;;;;;;;;7.67;7.33;;;;;16.04;90.99;100493.03;5082781;28;45816;-78
2023/04/24 05:23:30;;;;;;;;;10.00;9.00;;;;;16.15;90.94;100512.97;5082153;28;45350;-78
2023/04/24 05:25:55;;;;;;;;;9.33;9.33;;;;;16.12;91.20;100502.66;5082221;28;45294;-78
2023/04/24 05:28:21;;;;;;;;;9.00;9.00;;;;;16.12;90.81;100502.66;5082774;27;45224;-80
2023/04/24 05:30:46;;;;;;;;;11.00;8.00;;;;;16.24;90.88;100534.97;5102801;27;45280;-79
2023/04/24 05:33:12;;;;;;;;;10.00;10.00;;;;;16.16;90.82;100528.00;5103019;27;45208;-79
2023/04/24 05:35:37;;;;;;;;;10.00;9.33;;;;;16.25;90.95;100542.00;5102758;27;45371;-80
2023/04/24 05:38:02;;;;;;;;;12.00;10.67;;;;;16.36;91.20;100535.09;5103037;27;45219;-80
2023/04/24 05:40:28;;;;;;;;;11.33;9.67;;;;;16.39;90.35;100538.16;5083397;27;45215;-80
2023/04/24 05:42:53;;;;;;;;;8.67;8.67;;;;;16.31;90.28;100534.94;5080746;28;45230;-79
2023/04/24 05:45:19;;;;;;;;;9.67;9.00;;;;;16.26;90.87;100535.59;5079295;28;45712;-78
2023/04/24 05:47:44;;;;;;;;;9.67;8.67;;;;;16.34;90.93;100539.88;5080902;28;45987;-78
2023/04/24 05:50:10;;;;;;;;;11.33;11.33;;;;;16.37;90.29;100556.31;5081110;28;45458;-78
2023/04/24 05:52:35;;;;;;;;;10.33;9.33;;;;;16.37;91.02;100552.84;5082024;28;45352;-77
2023/04/24 05:55:01;;;;;;;;;12.33;12.00;;;;;16.37;90.82;100560.88;5081671;28;45324;-78
2023/04/24 05:57:26;;;;;;;;;13.33;12.33;;;;;16.40;91.09;100568.47;5081791;28;45366;-77
2023/04/24 05:59:52;;;;;;;;;11.33;9.67;;;;;16.28;90.57;100552.25;5081578;28;45256;-78
2023/04/24 06:02:17;;;;;;;;;9.00;9.00;;;;;16.43;91.90;100576.09;5081504;28;45657;-78
2023/04/24 06:04:43;;;;;;;;;10.00;9.67;;;;;16.42;91.01;100569.09;5080691;28;46397;-77
2023/04/24 06:07:10;;;;;;;;;10.33;10.33;;;;;16.49;91.16;100588.63;5081691;28;45382;-77
2023/04/24 06:09:36;;;;;;;;;11.00;11.00;;;;;16.42;90.85;100579.81;5081971;28;45318;-77
2023/04/24 06:12:02;;;;;;;;;12.33;11.33;;;;;16.46;90.26;100581.00;5081596;28;45492;-79
2023/04/24 06:14:27;;;;;;;;;11.33;11.00;;;;;16.58;90.86;100596.44;5081607;28;45283;-78
2023/04/24 06:16:52;;;;;;;;;11.00;11.00;;;;;16.56;90.13;100588.59;5081575;28;45285;-78
2023/04/24 06:19:18;;;;;;;;;10.67;10.33;;;;;16.67;90.51;100603.13;5081694;28;45197;-77
2023/04/24 06:21:43;;;;;;;;;10.67;10.00;;;;;16.62;90.28;100581.53;5081525;28;45529;-78
2023/04/24 06:24:09;;;;;;;;;12.33;11.33;;;;;16.73;90.55;100599.59;5081674;28;45239;-78
2023/04/24 06:26:34;;;;;;;;;11.33;10.00;;;;;16.84;89.35;100606.13;5081850;28;45268;-78
2023/04/24 06:29:00;;;;;;;;;14.00;11.00;;;;;16.81;89.50;100603.03;5082766;28;46020;-78
2023/04/24 06:31:25;;;;;;;;;13.67;11.67;;;;;16.87;89.61;100604.84;5063092;28;46147;-77
2023/04/24 06:33:50;;;;;;;;;11.33;10.67;;;;;16.95;89.16;100619.84;5081242;28;46202;-78
2023/04/24 06:36:16;;;;;;;;;12.00;12.00;;;;;16.89;89.08;100617.03;5082773;28;45471;-77
2023/04/24 06:38:42;;;;;;;;;11.00;11.00;;;;;16.92;88.92;100621.13;5081994;28;45397;-77
2023/04/24 06:41:07;;;;;;;;;11.33;11.33;;;;;16.83;88.96;100609.84;5080933;28;45302;-79
2023/04/24 06:43:33;;;;;;;;;15.67;12.33;;;;;16.94;89.94;100621.72;5081244;28;46572;-80
2023/04/24 06:45:59;;;;;;;;;9.67;8.33;;;;;17.02;89.81;100621.44;5083241;28;45526;-77
2023/04/24 06:48:25;;;;;;;;;11.00;9.67;;;;;17.02;89.65;100631.34;5081304;28;45275;-78
2023/04/24 06:50:50;;;;;;;;;12.33;12.33;;;;;16.98;89.68;100635.53;5080905;28;45599;-76
2023/04/24 06:53:16;;;;;;;;;12.33;12.33;;;;;16.97;90.11;100634.69;5080921;28;46136;-77
2023/04/24 06:55:43;;;;;;;;;15.33;11.67;;;;;17.00;89.30;100642.31;5081066;28;45376;-77
2023/04/24 06:58:08;;;;;;;;;11.00;10.00;;;;;16.79;89.55;100601.41;5081252;28;45243;-78
2023/04/24 07:00:33;;;;;;;;;11.33;11.00;;;;;17.07;89.75;100642.31;5080774;28;45835;-78
2023/04/24 07:02:59;;;;;;;;;16.33;13.67;;;;;17.10;90.56;100644.53;5080129;28;45312;-78
2023/04/24 07:05:24;;;;;;;;;14.00;13.33;;;;;17.11;90.56;100650.72;5080757;28;45315;-77
2023/04/24 07:07:51;;;;;;;;;13.00;13.00;;;;;17.16;90.75;100646.31;5081043;28;45355;-78
2023/04/24 07:10:16;;;;;;;;;13.67;12.67;;;;;17.10;90.20;100646.41;5077957;28;45452;-77
2023/04/24 07:12:42;;;;;;;;;15.00;14.33;;;;;17.09;89.30;100642.09;5078540;28;45391;-79
2023/04/24 07:15:08;;;;;;;;;14.00;13.33;;;;;17.15;90.40;100647.38;5081003;28;45338;-77
2023/04/24 07:17:34;;;;;;;;;14.67;13.33;;;;;17.21;91.02;100656.41;5080655;28;45463;-76
2023/04/24 07:20:00;;;;;;;;;17.67;15.67;;;;;17.25;89.65;100654.13;5080196;28;45393;-77
2023/04/24 07:22:25;;;;;;;;;16.33;14.67;;;;;17.24;89.92;100660.53;5080368;28;45326;-78
2023/04/24 07:24:51;;;;;;;;;18.33;17.33;;;;;17.26;90.94;100653.91;5080659;28;45327;-77
2023/04/24 07:27:16;;;;;;;;;17.67;16.00;;;;;17.15;89.99;100638.53;5080853;28;45218;-76
2023/04/24 07:29:42;;;;;;;;;16.67;16.67;;;;;17.31;90.48;100655.09;5080268;28;45505;-76
2023/04/24 07:32:07;;;;;;;;;17.67;16.00;;;;;17.34;90.18;100654.66;5079724;28;46030;-75
2023/04/24 07:34:33;;;;;;;;;18.67;16.67;;;;;17.39;89.34;100652.13;5080064;28;45198;-75
2023/04/24 07:36:58;;;;;;;;;22.67;22.00;;;;;17.32;89.00;100644.13;5080231;28;45279;-74
2023/04/24 07:39:24;;;;;;;;;18.67;16.00;;;;;17.41;88.36;100664.28;5079928;28;45212;-75
2023/04/24 07:41:49;;;;;;;;;22.00;19.67;;;;;17.34;88.12;100665.41;5079969;28;45277;-75
2023/04/24 07:44:15;;;;;;;;;19.00;19.00;;;;;17.35;88.10;100667.03;5080175;28;45440;-75
2023/04/24 07:46:40;;;;;;;;;21.67;21.33;;;;;17.34;87.47;100670.75;5080125;28;45288;-75
2023/04/24 07:49:06;;;;;;;;;29.00;26.00;;;;;17.31;86.75;100674.72;5079710;28;45386;-75
2023/04/24 07:51:33;;;;;;;;;24.00;24.00;;;;;17.24;84.66;100679.34;5080006;28;45408;-75
2023/04/24 07:53:58;;;;;;;;;30.33;26.33;;;;;17.24;84.10;100682.81;5080176;28;45272;-74
2023/04/24 07:56:25;;;;;;;;;29.33;26.33;;;;;17.15;83.94;100673.44;5079787;28;45470;-75
2023/04/24 07:58:50;;;;;;;;;18.33;18.33;;;;;17.17;84.30;100676.69;5080072;28;45446;-75
2023/04/24 08:01:15;;;;;;;;;24.67;24.00;;;;;17.18;84.53;100686.38;5079887;28;46207;-75
2023/04/24 08:03:41;;;;;;;;;28.33;26.67;;;;;17.25;85.81;100689.03;5079998;28;45148;-75
2023/04/24 08:06:06;;;;;;;;;25.00;25.00;;;;;17.32;84.87;100688.94;5061650;28;45316;-75
2023/04/24 08:08:32;;;;;;;;;26.00;24.67;;;;;17.22;83.75;100667.97;5079805;28;45442;-75
2023/04/24 08:10:57;;;;;;;;;24.33;23.33;;;;;17.33;83.67;100687.94;5079667;28;46050;-74
2023/04/24 08:13:23;;;;;;;;;23.67;23.67;;;;;17.35;84.52;100685.81;5079760;28;45273;-74
2023/04/24 08:15:48;;;;;;;;;25.67;24.67;;;;;17.46;85.27;100695.88;5079931;28;45347;-75
2023/04/24 08:18:15;;;;;;;;;23.00;22.33;;;;;17.54;84.82;100703.63;5061482;28;45523;-74
2023/04/24 08:20:40;;;;;;;;;26.00;25.67;;;;;17.64;86.04;100696.94;5079425;28;46106;-74
2023/04/24 08:23:06;;;;;;;;;24.33;22.33;;;;;17.69;85.21;100702.44;5079568;28;45364;-75
2023/04/24 08:25:31;;;;;;;;;22.00;22.00;;;;;17.71;84.97;100704.91;5079675;28;45344;-74
2023/04/24 08:27:57;;;;;;;;;25.33;22.67;;;;;17.69;83.54;100707.00;5079617;28;45347;-75
2023/04/24 08:30:23;;;;;;;;;21.33;20.67;;;;;17.69;83.37;100713.19;5079162;28;45393;-74
2023/04/24 08:32:48;;;;;;;;;26.33;25.00;;;;;17.69;82.71;100715.06;5079522;28;45319;-74
2023/04/24 08:35:13;;;;;;;;;24.67;23.00;;;;;17.64;83.91;100707.66;5080477;28;45323;-78
2023/04/24 08:37:39;;;;;;;;;33.67;32.33;;;;;17.75;83.87;100719.56;5080755;28;45285;-79
2023/04/24 08:40:12;;;;;;;;;41.67;35.67;;;;;17.74;83.50;100710.66;5079701;28;46286;-76
2023/04/24 08:42:39;;;;;;;;;29.33;26.67;;;;;17.75;83.54;100717.69;5079083;28;45335;-77
2023/04/24 08:45:06;;;;;;;;;32.33;31.33;;;;;17.83;83.62;100713.88;5079604;28;45290;-77
2023/04/24 08:47:32;;;;;;;;;21.00;21.00;;;;;17.86;82.61;100723.34;5078491;28;45496;-77
2023/04/24 08:49:59;;;;;;;;;29.00;26.33;;;;;17.82;83.02;100727.53;5079210;28;45354;-77
2023/04/24 08:52:25;;;;;;;;;29.67;27.00;;;;;17.79;83.67;100726.97;5079221;28;45350;-77
2023/04/24 08:54:53;;;;;;;;;27.00;26.33;;;;;17.85;83.17;100736.00;5079529;28;45409;-77
2023/04/24 08:57:19;;;;;;;;;34.33;29.33;;;;;17.87;nan;100727.72;5060574;28;45434;-78
2023/04/24 08:59:45;;;;;;;;;32.00;30.33;;;;;17.90;83.23;100736.13;5078986;28;45587;-77
2023/04/24 09:02:11;;;;;;;;;23.67;22.33;;;;;17.96;84.00;100736.28;5079205;28;45294;-77
2023/04/24 09:04:37;;;;;;;;;22.33;20.67;;;;;18.02;85.82;100732.72;5079337;28;45268;-77
2023/04/24 09:07:05;;;;;;;;;26.00;23.33;;;;;18.04;84.94;100719.84;5078612;28;45369;-77
2023/04/24 09:09:32;;;;;;;;;28.00;27.00;;;;;18.16;84.21;100717.25;5078886;28;45490;-77
2023/04/24 09:11:58;;;;;;;;;28.67;26.33;;;;;18.35;83.56;100717.25;5078969;28;45257;-78
2023/04/24 09:14:27;;;;;;;;;25.00;22.67;;;;;18.41;84.08;100721.72;5079075;28;45254;-77
2023/04/24 09:16:53;;;;;;;;;37.00;32.00;;;;;18.52;82.94;100720.09;5079017;28;45343;-76
2023/04/24 09:19:18;;;;;;;;;22.00;22.00;;;;;18.45;82.57;100698.69;5078337;28;45319;-77
2023/04/24 09:21:46;;;;;;;;;25.67;24.67;;;;;18.71;81.57;100720.06;5076750;27;45525;-77
2023/04/24 09:24:17;;;;;;;;;27.33;25.33;;;;;18.77;81.67;100724.53;5077324;28;45492;-77
2023/04/24 09:26:44;;;;;;;;;27.00;23.67;;;;;18.68;80.96;100716.78;5063532;28;45837;-75
2023/04/24 09:29:15;;;;;;;;;30.00;27.33;;;;;18.70;80.54;100713.06;5077979;28;46287;-77
2023/04/24 09:31:41;;;;;;;;;24.33;24.33;;;;;18.68;80.76;100718.66;5081741;27;45272;-78
2023/04/24 09:34:06;;;;;;;;;23.00;20.67;;;;;18.73;80.07;100734.09;5082114;28;45323;-77
2023/04/24 09:36:36;;;;;;;;;27.00;24.67;;;;;18.53;81.01;100730.66;5081947;28;45383;-77
2023/04/24 09:39:04;;;;;;;;;25.33;24.00;;;;;18.60;81.69;100732.44;5082249;28;45378;-75
2023/04/24 09:41:29;;;;;;;;;29.67;28.33;;;;;18.59;82.51;100736.19;5081898;28;45306;-77
2023/04/24 09:43:56;;;;;;;;;27.00;26.67;;;;;18.64;82.83;100730.91;5082074;28;45213;-78
2023/04/24 09:46:28;;;;;;;;;32.33;29.00;;;;;18.70;81.68;100729.19;5064023;28;45456;-78
2023/04/24 09:48:54;;;;;;;;;25.33;24.67;;;;;18.70;82.30;100734.59;5061555;28;47118;-78
2023/04/24 09:51:34;;;;;;;;;26.67;24.67;;;;;18.90;82.33;100751.25;5081400;28;45328;-77
2023/04/24 09:54:05;;;;;;;;;29.67;27.33;;;;;18.88;80.42;100730.97;5071255;28;45347;-78
2023/04/24 09:56:34;;;;;;;;;29.33;27.67;;;;;18.91;80.21;100725.13;5043179;28;45970;-76
2023/04/24 09:59:07;;;;;;;;;30.00;27.67;;;;;19.09;79.47;100739.63;5061375;28;45322;-76
2023/04/24 10:01:33;;;;;;;;;27.33;26.00;;;;;19.16;79.57;100741.13;5061405;28;45154;-76
2023/04/24 10:03:58;;;;;;;;;31.67;29.67;;;;;19.19;79.80;100758.72;5077387;28;45327;-76
2023/04/24 10:06:32;;;;;;;;;27.33;27.00;;;;;19.27;79.88;100746.78;5081469;28;45317;-77
2023/04/24 10:08:58;;;;;;;;;29.67;26.00;;;;;19.26;77.72;100743.28;5081695;28;46189;-77
2023/04/24 10:11:29;;;;;;;;;24.67;24.00;;;;;19.25;77.40;100743.50;5079228;28;45262;-77
2023/04/24 10:13:55;;;;;;;;;24.00;22.67;;;;;19.24;76.51;100740.00;5081961;28;45265;-78
2023/04/24 10:16:24;;;;;;;;;30.00;29.00;;;;;19.16;76.29;100733.06;5079075;28;45454;-78
2023/04/24 10:18:49;;;;;;;;;25.67;25.67;;;;;19.10;77.32;100742.09;5061099;28;45434;-77
2023/04/24 10:21:17;;;;;;;;;28.67;28.67;;;;;19.03;76.00;100742.16;5060886;28;45490;-77
2023/04/24 10:23:43;;;;;;;;;27.00;25.67;;;;;19.07;76.25;100744.38;5070773;28;45308;-77
2023/04/24 10:26:17;;;;;;;;;32.67;30.33;;;;;19.10;77.27;100739.41;5080545;28;45337;-77
2023/04/24 10:28:45;;;;;;;;;27.33;26.33;;;;;19.11;75.50;100740.19;5080463;28;46078;-77
2023/04/24 10:31:12;;;;;;;;;29.67;27.67;;;;;19.19;77.60;100742.56;5080523;28;45488;-77
2023/04/24 10:33:41;;;;;;;;;27.33;26.33;;;;;19.23;76.70;100735.66;5081461;28;45370;-77
2023/04/24 10:36:08;;;;;;;;;27.33;25.33;;;;;19.41;75.44;100747.38;5080160;28;45297;-76
2023/04/24 10:38:36;;;;;;;;;28.67;23.33;;;;;19.53;75.31;100748.22;5074750;28;45986;-78
2023/04/24 10:41:25;;;;;;;;;24.67;24.33;;;;;19.67;75.66;100745.28;5077755;28;45312;-76
2023/04/24 10:44:22;;;;;;;;;23.67;22.33;;;;;19.83;73.90;100737.50;5081383;28;45409;-77
2023/04/24 10:46:53;;;;;;;;;24.00;24.00;;;;;20.02;72.74;100736.34;5059803;28;45492;-76
2023/04/24 10:49:28;;;;;;;;;24.67;24.00;;;;;20.29;72.80;100743.91;5078068;28;45364;-76
2023/04/24 10:51:59;;;;;;;;;24.67;24.67;;;;;20.38;72.23;100746.22;5080934;28;45651;-76
2023/04/24 10:54:27;;;;;;;;;25.00;22.00;;;;;20.53;70.55;100751.09;5080797;28;45421;-76
2023/04/24 10:56:54;;;;;;;;;22.33;19.00;;;;;20.62;69.06;100746.94;5080684;28;45307;-77
2023/04/24 10:59:27;;;;;;;;;25.33;22.33;;;;;20.83;68.91;100749.19;5080525;28;46202;-77
2023/04/24 11:01:56;;;;;;;;;23.67;23.67;;;;;20.72;68.20;100740.94;5081070;28;45400;-77
2023/04/24 11:04:32;;;;;;;;;26.00;23.67;;;;;20.83;67.91;100754.59;5080964;28;45460;-77
2023/04/24 11:06:58;;;;;;;;;26.00;25.67;;;;;20.77;68.27;100751.00;5077371;28;45512;-77
2023/04/24 11:09:27;;;;;;;;;23.00;21.00;;;;;20.72;67.33;100756.28;5079969;28;45386;-77
2023/04/24 11:12:13;;;;;;;;;24.00;24.00;;;;;20.64;67.75;100736.72;5089008;27;45284;-77